Juneau, AK

12:57 PM AKDT on September 03, 2015 (GMT -0800)
Juneau International | | Change Station
CLOSE
Current Station
Airport
Location: Juneau,
Elevation: 23 ft
Nearby Weather Stations

Elev 23 ft 58.35 °N, 134.58 °W | Updated 4 minutes ago

Partly Cloudy
Partly Cloudy
65 °F
Feels Like 65 °F
N
5
Wind Variable Wind from Variable

Today
High -- | Low -- °F
--% Chance of Precip.
Yesterday
High -- | Low -- °F
Precip. -- in
6:01 AM 7:52 PM
Waning Gibbous, 67% visible
Pressure 30.09 in
Visibility 10.0 miles
Clouds Few 3500 ft
Few 20000 ft
Dew Point 40 °F
Humidity 40%
Rainfall 0.00 in
Snow Depth Not available.
UV 5 out of 12
Pollen Not available.
Air Quality Not available.
Flu Activity Not available.
METAR PAJN 032053Z VRB04KT 10SM FEW035 FEW200 18/04 A3009 RMK AO2 SLP190 T01830044 56006
Pressure 30.09 in
Visibility 10.0 miles
Clouds Few 3500 ft
Few 20000 ft
Dew Point 40 °F
Humidity 40%
Rainfall 0.00 in
Snow Depth Not available.
UV 5 out of 12
Pollen Not available.
Air Quality Not available.
Flu Activity Not available.
METAR PAJN 032053Z VRB04KT 10SM FEW035 FEW200 18/04 A3009 RMK AO2 SLP190 T01830044 56006

10-Day Weather Forecast

×

Almanac

Astronomy

Sep. 03, 2015 Rise Set
Actual Time
Civil Twilight
Nautical Twilight
Astronomical Twilight
Moon
Length of Visible Light
Length of Day
Tomorrow will be .
, % of the Moon is Illuminated

Today's Extremes

State Highs State Lows

Community

WunderPhotos

Upload Photos

1,852,036 photos uploaded!

WunderBlogs® & News

Nearby

Air Quality

  Air Quality AQ Index Pollutant
Not available.

Snow Depth

Station Depth Elevation

Earthquake Activity

City Distance Mag. Time & Date
Minimum magnitude displayed is 2.5.

Coastal Water Temperatures

Place Temperature

Stations

Nearby Weather Stations

Station Location Temp. Windchill Dew Point Humidity Wind Precip. Elev Updated Type